sensor_id;sensor_type;location;lat;lon;timestamp;P1;durP1;ratioP1;P2;durP2;ratioP2
74044;SDS011;62389;51.412;5.436;2022-11-15T00:02:02;19.00;;;10.80;;
74044;SDS011;62389;51.412;5.436;2022-11-15T00:04:29;21.27;;;12.32;;
74044;SDS011;62389;51.412;5.436;2022-11-15T00:06:55;22.98;;;10.20;;
74044;SDS011;62389;51.412;5.436;2022-11-15T00:09:20;20.00;;;10.55;;
74044;SDS011;62389;51.412;5.436;2022-11-15T00:11:45;20.50;;;10.57;;
74044;SDS011;62389;51.412;5.436;2022-11-15T00:14:11;22.27;;;11.43;;
74044;SDS011;62389;51.412;5.436;2022-11-15T00:16:36;22.50;;;10.73;;
74044;SDS011;62389;51.412;5.436;2022-11-15T00:19:01;19.52;;;10.25;;
74044;SDS011;62389;51.412;5.436;2022-11-15T00:21:27;23.50;;;10.90;;
74044;SDS011;62389;51.412;5.436;2022-11-15T00:23:52;20.05;;;10.50;;
74044;SDS011;62389;51.412;5.436;2022-11-15T00:26:18;21.30;;;12.05;;
74044;SDS011;62389;51.412;5.436;2022-11-15T00:28:43;21.98;;;10.40;;
74044;SDS011;62389;51.412;5.436;2022-11-15T00:31:11;19.38;;;9.95;;
74044;SDS011;62389;51.412;5.436;2022-11-15T00:33:38;20.17;;;10.38;;
74044;SDS011;62389;51.412;5.436;2022-11-15T00:36:05;16.98;;;10.05;;
74044;SDS011;62389;51.412;5.436;2022-11-15T00:38:34;20.55;;;11.98;;
74044;SDS011;62389;51.412;5.436;2022-11-15T00:41:01;18.88;;;10.07;;
74044;SDS011;62389;51.412;5.436;2022-11-15T00:43:27;19.65;;;10.30;;
74044;SDS011;62389;51.412;5.436;2022-11-15T00:45:53;19.48;;;10.48;;
74044;SDS011;62389;51.412;5.436;2022-11-15T00:48:19;20.95;;;10.80;;
74044;SDS011;62389;51.412;5.436;2022-11-15T00:50:44;18.42;;;11.10;;
74044;SDS011;62389;51.412;5.436;2022-11-15T00:53:09;23.65;;;11.32;;
74044;SDS011;62389;51.412;5.436;2022-11-15T00:55:35;20.77;;;11.43;;
74044;SDS011;62389;51.412;5.436;2022-11-15T00:58:01;21.98;;;11.27;;
74044;SDS011;62389;51.412;5.436;2022-11-15T01:00:26;21.85;;;11.23;;
74044;SDS011;62389;51.412;5.436;2022-11-15T01:02:52;24.38;;;12.77;;
74044;SDS011;62389;51.412;5.436;2022-11-15T01:05:18;22.75;;;11.20;;
74044;SDS011;62389;51.412;5.436;2022-11-15T01:07:43;25.92;;;10.82;;
74044;SDS011;62389;51.412;5.436;2022-11-15T01:10:09;24.33;;;11.45;;
74044;SDS011;62389;51.412;5.436;2022-11-15T01:12:34;25.92;;;11.38;;
74044;SDS011;62389;51.412;5.436;2022-11-15T01:14:59;25.17;;;11.65;;
74044;SDS011;62389;51.412;5.436;2022-11-15T01:17:25;23.55;;;12.00;;
74044;SDS011;62389;51.412;5.436;2022-11-15T01:19:51;27.63;;;12.50;;
74044;SDS011;62389;51.412;5.436;2022-11-15T01:22:16;25.27;;;12.30;;
74044;SDS011;62389;51.412;5.436;2022-11-15T01:24:41;21.73;;;10.85;;
74044;SDS011;62389;51.412;5.436;2022-11-15T01:27:07;24.00;;;12.68;;
74044;SDS011;62389;51.412;5.436;2022-11-15T01:29:32;23.65;;;11.75;;
74044;SDS011;62389;51.412;5.436;2022-11-15T01:31:57;22.50;;;11.13;;
74044;SDS011;62389;51.412;5.436;2022-11-15T01:34:23;26.80;;;11.48;;
74044;SDS011;62389;51.412;5.436;2022-11-15T01:36:48;25.70;;;11.88;;
74044;SDS011;62389;51.412;5.436;2022-11-15T01:39:14;25.38;;;12.57;;
74044;SDS011;62389;51.412;5.436;2022-11-15T01:41:40;24.33;;;12.35;;
74044;SDS011;62389;51.412;5.436;2022-11-15T01:47:03;25.05;;;11.98;;
74044;SDS011;62389;51.412;5.436;2022-11-15T01:49:33;27.48;;;12.18;;
74044;SDS011;62389;51.412;5.436;2022-11-15T01:52:04;21.77;;;11.35;;
74044;SDS011;62389;51.412;5.436;2022-11-15T01:54:35;26.98;;;12.88;;
74044;SDS011;62389;51.412;5.436;2022-11-15T01:57:05;26.63;;;11.88;;
74044;SDS011;62389;51.412;5.436;2022-11-15T01:59:34;26.92;;;12.23;;
74044;SDS011;62389;51.412;5.436;2022-11-15T02:02:00;20.23;;;11.35;;
74044;SDS011;62389;51.412;5.436;2022-11-15T02:04:30;26.77;;;14.45;;
74044;SDS011;62389;51.412;5.436;2022-11-15T02:06:59;24.27;;;11.95;;
74044;SDS011;62389;51.412;5.436;2022-11-15T02:09:26;27.23;;;12.57;;
74044;SDS011;62389;51.412;5.436;2022-11-15T02:11:52;23.77;;;11.90;;
74044;SDS011;62389;51.412;5.436;2022-11-15T02:14:20;26.55;;;12.82;;
74044;SDS011;62389;51.412;5.436;2022-11-15T02:32:40;27.92;;;13.45;;
74044;SDS011;62389;51.412;5.436;2022-11-15T02:37:59;25.67;;;11.77;;
74044;SDS011;62389;51.412;5.436;2022-11-15T02:41:04;29.13;;;13.43;;
74044;SDS011;62389;51.412;5.436;2022-11-15T02:49:20;22.80;;;10.70;;
74044;SDS011;62389;51.412;5.436;2022-11-15T02:54:15;25.23;;;11.35;;
74044;SDS011;62389;51.412;5.436;2022-11-15T02:56:44;22.98;;;11.63;;
74044;SDS011;62389;51.412;5.436;2022-11-15T03:04:20;23.05;;;11.75;;
74044;SDS011;62389;51.412;5.436;2022-11-15T03:06:50;29.92;;;11.43;;
74044;SDS011;62389;51.412;5.436;2022-11-15T03:10:05;22.95;;;11.63;;
74044;SDS011;62389;51.412;5.436;2022-11-15T03:12:27;25.27;;;11.13;;
74044;SDS011;62389;51.412;5.436;2022-11-15T03:18:00;29.63;;;12.80;;
74044;SDS011;62389;51.412;5.436;2022-11-15T03:20:29;31.10;;;12.35;;
74044;SDS011;62389;51.412;5.436;2022-11-15T03:22:56;29.10;;;12.27;;
74044;SDS011;62389;51.412;5.436;2022-11-15T03:25:28;25.65;;;12.30;;
74044;SDS011;62389;51.412;5.436;2022-11-15T03:27:56;25.10;;;12.60;;
74044;SDS011;62389;51.412;5.436;2022-11-15T03:30:26;26.80;;;12.85;;
74044;SDS011;62389;51.412;5.436;2022-11-15T03:32:58;29.10;;;12.48;;
74044;SDS011;62389;51.412;5.436;2022-11-15T03:35:27;28.70;;;12.95;;
74044;SDS011;62389;51.412;5.436;2022-11-15T03:40:30;30.73;;;12.73;;
74044;SDS011;62389;51.412;5.436;2022-11-15T03:45:47;23.58;;;11.63;;
74044;SDS011;62389;51.412;5.436;2022-11-15T03:48:25;27.08;;;13.85;;
74044;SDS011;62389;51.412;5.436;2022-11-15T03:50:54;28.65;;;13.23;;
74044;SDS011;62389;51.412;5.436;2022-11-15T03:53:20;26.48;;;12.27;;
74044;SDS011;62389;51.412;5.436;2022-11-15T03:55:45;24.08;;;12.23;;
74044;SDS011;62389;51.412;5.436;2022-11-15T03:58:11;24.15;;;12.40;;
74044;SDS011;62389;51.412;5.436;2022-11-15T04:00:36;24.83;;;12.38;;
74044;SDS011;62389;51.412;5.436;2022-11-15T04:03:01;26.98;;;13.32;;
74044;SDS011;62389;51.412;5.436;2022-11-15T04:05:27;27.30;;;12.85;;
74044;SDS011;62389;51.412;5.436;2022-11-15T04:07:52;27.55;;;12.70;;
74044;SDS011;62389;51.412;5.436;2022-11-15T04:10:18;23.08;;;11.45;;
74044;SDS011;62389;51.412;5.436;2022-11-15T04:12:44;28.50;;;11.77;;
74044;SDS011;62389;51.412;5.436;2022-11-15T04:15:13;29.58;;;13.45;;
74044;SDS011;62389;51.412;5.436;2022-11-15T04:17:50;27.27;;;12.57;;
74044;SDS011;62389;51.412;5.436;2022-11-15T04:26:09;26.10;;;12.52;;
74044;SDS011;62389;51.412;5.436;2022-11-15T04:28:37;29.65;;;14.18;;
74044;SDS011;62389;51.412;5.436;2022-11-15T04:31:22;26.30;;;12.55;;
74044;SDS011;62389;51.412;5.436;2022-11-15T04:33:48;27.48;;;13.23;;
74044;SDS011;62389;51.412;5.436;2022-11-15T04:36:13;28.52;;;13.48;;
74044;SDS011;62389;51.412;5.436;2022-11-15T04:38:57;30.98;;;13.40;;
74044;SDS011;62389;51.412;5.436;2022-11-15T04:41:22;29.05;;;13.15;;
74044;SDS011;62389;51.412;5.436;2022-11-15T04:43:48;25.15;;;13.55;;
74044;SDS011;62389;51.412;5.436;2022-11-15T04:46:13;28.52;;;13.15;;
74044;SDS011;62389;51.412;5.436;2022-11-15T04:48:38;28.25;;;14.13;;
74044;SDS011;62389;51.412;5.436;2022-11-15T04:51:04;26.48;;;12.10;;
74044;SDS011;62389;51.412;5.436;2022-11-15T04:53:29;27.52;;;12.95;;
74044;SDS011;62389;51.412;5.436;2022-11-15T04:55:55;29.90;;;13.73;;
74044;SDS011;62389;51.412;5.436;2022-11-15T04:58:20;31.35;;;13.20;;
74044;SDS011;62389;51.412;5.436;2022-11-15T05:00:45;28.52;;;12.93;;
74044;SDS011;62389;51.412;5.436;2022-11-15T05:03:10;24.95;;;12.85;;
74044;SDS011;62389;51.412;5.436;2022-11-15T05:05:54;28.70;;;11.98;;
74044;SDS011;62389;51.412;5.436;2022-11-15T05:08:20;27.38;;;13.35;;
74044;SDS011;62389;51.412;5.436;2022-11-15T05:10:45;24.77;;;12.15;;
74044;SDS011;62389;51.412;5.436;2022-11-15T05:13:12;24.17;;;12.13;;
74044;SDS011;62389;51.412;5.436;2022-11-15T05:15:37;29.33;;;13.95;;
74044;SDS011;62389;51.412;5.436;2022-11-15T05:18:03;23.60;;;12.40;;
74044;SDS011;62389;51.412;5.436;2022-11-15T05:20:28;28.73;;;11.45;;
74044;SDS011;62389;51.412;5.436;2022-11-15T05:22:53;30.55;;;12.30;;
74044;SDS011;62389;51.412;5.436;2022-11-15T05:25:20;24.02;;;10.50;;
74044;SDS011;62389;51.412;5.436;2022-11-15T05:27:46;28.40;;;12.65;;
74044;SDS011;62389;51.412;5.436;2022-11-15T05:30:11;25.23;;;12.52;;
74044;SDS011;62389;51.412;5.436;2022-11-15T05:32:36;22.05;;;11.88;;
74044;SDS011;62389;51.412;5.436;2022-11-15T05:35:02;25.08;;;11.43;;
74044;SDS011;62389;51.412;5.436;2022-11-15T05:37:31;23.70;;;12.48;;
74044;SDS011;62389;51.412;5.436;2022-11-15T05:39:56;21.40;;;10.25;;
74044;SDS011;62389;51.412;5.436;2022-11-15T05:42:22;24.13;;;10.60;;
74044;SDS011;62389;51.412;5.436;2022-11-15T05:44:48;23.92;;;11.82;;
74044;SDS011;62389;51.412;5.436;2022-11-15T05:47:19;22.35;;;11.43;;
74044;SDS011;62389;51.412;5.436;2022-11-15T05:49:47;24.65;;;11.32;;
74044;SDS011;62389;51.412;5.436;2022-11-15T05:52:15;25.33;;;11.70;;
74044;SDS011;62389;51.412;5.436;2022-11-15T05:54:44;29.92;;;13.15;;
74044;SDS011;62389;51.412;5.436;2022-11-15T05:57:09;24.85;;;11.10;;
74044;SDS011;62389;51.412;5.436;2022-11-15T05:59:35;24.60;;;12.52;;
74044;SDS011;62389;51.412;5.436;2022-11-15T06:02:01;24.63;;;10.70;;
74044;SDS011;62389;51.412;5.436;2022-11-15T06:04:26;31.92;;;12.38;;
74044;SDS011;62389;51.412;5.436;2022-11-15T06:06:52;27.70;;;12.75;;
74044;SDS011;62389;51.412;5.436;2022-11-15T06:09:17;30.42;;;13.15;;
74044;SDS011;62389;51.412;5.436;2022-11-15T06:11:43;29.65;;;12.70;;
74044;SDS011;62389;51.412;5.436;2022-11-15T06:14:08;24.10;;;12.35;;
74044;SDS011;62389;51.412;5.436;2022-11-15T06:16:33;23.92;;;12.00;;
74044;SDS011;62389;51.412;5.436;2022-11-15T06:18:59;27.95;;;13.27;;
74044;SDS011;62389;51.412;5.436;2022-11-15T06:21:24;29.85;;;12.93;;
74044;SDS011;62389;51.412;5.436;2022-11-15T06:23:52;26.08;;;13.15;;
74044;SDS011;62389;51.412;5.436;2022-11-15T06:26:18;25.98;;;14.02;;
74044;SDS011;62389;51.412;5.436;2022-11-15T06:28:43;24.88;;;11.85;;
74044;SDS011;62389;51.412;5.436;2022-11-15T06:31:09;24.13;;;11.43;;
74044;SDS011;62389;51.412;5.436;2022-11-15T06:33:38;18.67;;;9.85;;
74044;SDS011;62389;51.412;5.436;2022-11-15T06:36:06;25.55;;;11.05;;
74044;SDS011;62389;51.412;5.436;2022-11-15T06:38:34;21.60;;;10.55;;
74044;SDS011;62389;51.412;5.436;2022-11-15T06:41:03;19.55;;;9.73;;
74044;SDS011;62389;51.412;5.436;2022-11-15T06:43:29;20.00;;;9.65;;
74044;SDS011;62389;51.412;5.436;2022-11-15T06:45:55;19.67;;;8.82;;
74044;SDS011;62389;51.412;5.436;2022-11-15T06:48:22;21.77;;;9.88;;
74044;SDS011;62389;51.412;5.436;2022-11-15T06:50:54;18.38;;;9.43;;
74044;SDS011;62389;51.412;5.436;2022-11-15T06:55:46;19.80;;;9.13;;
74044;SDS011;62389;51.412;5.436;2022-11-15T06:58:11;19.05;;;9.25;;
74044;SDS011;62389;51.412;5.436;2022-11-15T07:00:37;23.85;;;10.38;;
74044;SDS011;62389;51.412;5.436;2022-11-15T07:03:02;23.23;;;11.90;;
74044;SDS011;62389;51.412;5.436;2022-11-15T07:05:28;19.92;;;9.23;;
74044;SDS011;62389;51.412;5.436;2022-11-15T07:07:55;19.92;;;10.88;;
74044;SDS011;62389;51.412;5.436;2022-11-15T07:12:49;21.80;;;9.40;;
74044;SDS011;62389;51.412;5.436;2022-11-15T07:15:18;17.80;;;9.63;;
74044;SDS011;62389;51.412;5.436;2022-11-15T07:17:46;22.55;;;9.18;;
74044;SDS011;62389;51.412;5.436;2022-11-15T07:20:12;21.17;;;10.45;;
74044;SDS011;62389;51.412;5.436;2022-11-15T07:22:39;21.42;;;10.43;;
74044;SDS011;62389;51.412;5.436;2022-11-15T07:25:05;21.30;;;9.93;;
74044;SDS011;62389;51.412;5.436;2022-11-15T07:27:31;23.17;;;9.82;;
74044;SDS011;62389;51.412;5.436;2022-11-15T07:29:56;19.65;;;9.30;;
74044;SDS011;62389;51.412;5.436;2022-11-15T07:32:21;19.05;;;9.60;;
74044;SDS011;62389;51.412;5.436;2022-11-15T07:34:47;21.42;;;9.20;;
74044;SDS011;62389;51.412;5.436;2022-11-15T07:37:12;21.38;;;9.00;;
74044;SDS011;62389;51.412;5.436;2022-11-15T07:39:38;19.95;;;9.48;;
74044;SDS011;62389;51.412;5.436;2022-11-15T07:42:03;20.35;;;9.15;;
74044;SDS011;62389;51.412;5.436;2022-11-15T07:44:47;18.85;;;9.20;;
74044;SDS011;62389;51.412;5.436;2022-11-15T07:47:12;19.45;;;8.73;;
74044;SDS011;62389;51.412;5.436;2022-11-15T07:49:38;16.90;;;8.82;;
74044;SDS011;62389;51.412;5.436;2022-11-15T07:52:03;18.50;;;8.38;;
74044;SDS011;62389;51.412;5.436;2022-11-15T07:54:29;15.38;;;7.68;;
74044;SDS011;62389;51.412;5.436;2022-11-15T07:56:54;15.68;;;7.70;;
74044;SDS011;62389;51.412;5.436;2022-11-15T07:59:19;16.75;;;7.80;;
74044;SDS011;62389;51.412;5.436;2022-11-15T08:01:45;15.85;;;7.18;;
74044;SDS011;62389;51.412;5.436;2022-11-15T08:04:10;15.45;;;7.38;;
74044;SDS011;62389;51.412;5.436;2022-11-15T08:06:36;13.43;;;7.28;;
74044;SDS011;62389;51.412;5.436;2022-11-15T08:09:01;14.65;;;7.30;;
74044;SDS011;62389;51.412;5.436;2022-11-15T08:11:27;16.00;;;7.63;;
74044;SDS011;62389;51.412;5.436;2022-11-15T08:13:52;14.95;;;6.70;;
74044;SDS011;62389;51.412;5.436;2022-11-15T08:16:18;15.27;;;7.50;;
74044;SDS011;62389;51.412;5.436;2022-11-15T08:18:43;19.35;;;6.57;;
74044;SDS011;62389;51.412;5.436;2022-11-15T08:21:09;16.27;;;6.65;;
74044;SDS011;62389;51.412;5.436;2022-11-15T08:23:35;12.15;;;6.50;;
74044;SDS011;62389;51.412;5.436;2022-11-15T08:26:01;10.90;;;5.85;;
74044;SDS011;62389;51.412;5.436;2022-11-15T08:28:27;10.48;;;5.70;;
74044;SDS011;62389;51.412;5.436;2022-11-15T08:30:54;9.70;;;5.72;;
74044;SDS011;62389;51.412;5.436;2022-11-15T08:33:19;11.05;;;5.70;;
74044;SDS011;62389;51.412;5.436;2022-11-15T08:35:44;9.23;;;5.05;;
74044;SDS011;62389;51.412;5.436;2022-11-15T08:38:10;12.13;;;5.57;;
74044;SDS011;62389;51.412;5.436;2022-11-15T08:40:35;10.85;;;6.65;;
74044;SDS011;62389;51.412;5.436;2022-11-15T08:43:02;9.40;;;4.85;;
74044;SDS011;62389;51.412;5.436;2022-11-15T08:45:28;7.97;;;5.03;;
74044;SDS011;62389;51.412;5.436;2022-11-15T08:47:54;10.85;;;4.70;;
74044;SDS011;62389;51.412;5.436;2022-11-15T08:50:20;11.52;;;5.93;;
74044;SDS011;62389;51.412;5.436;2022-11-15T08:52:46;9.68;;;4.75;;
74044;SDS011;62389;51.412;5.436;2022-11-15T08:57:38;10.55;;;4.30;;
74044;SDS011;62389;51.412;5.436;2022-11-15T09:00:03;8.85;;;4.53;;
74044;SDS011;62389;51.412;5.436;2022-11-15T09:02:29;8.25;;;4.13;;
74044;SDS011;62389;51.412;5.436;2022-11-15T09:04:55;5.95;;;3.28;;
74044;SDS011;62389;51.412;5.436;2022-11-15T09:07:20;6.18;;;3.42;;
74044;SDS011;62389;51.412;5.436;2022-11-15T09:09:45;7.88;;;3.45;;
74044;SDS011;62389;51.412;5.436;2022-11-15T09:12:11;5.85;;;3.08;;
74044;SDS011;62389;51.412;5.436;2022-11-15T09:14:36;6.03;;;3.45;;
74044;SDS011;62389;51.412;5.436;2022-11-15T09:17:02;7.97;;;3.35;;
74044;SDS011;62389;51.412;5.436;2022-11-15T09:19:28;4.85;;;3.20;;
74044;SDS011;62389;51.412;5.436;2022-11-15T09:21:53;5.80;;;2.80;;
74044;SDS011;62389;51.412;5.436;2022-11-15T09:24:19;4.30;;;2.63;;
74044;SDS011;62389;51.412;5.436;2022-11-15T09:26:44;5.20;;;2.60;;
74044;SDS011;62389;51.412;5.436;2022-11-15T09:29:10;4.68;;;2.47;;
74044;SDS011;62389;51.412;5.436;2022-11-15T09:31:35;3.97;;;2.22;;
74044;SDS011;62389;51.412;5.436;2022-11-15T09:34:01;4.70;;;2.20;;
74044;SDS011;62389;51.412;5.436;2022-11-15T09:36:26;4.60;;;2.25;;
74044;SDS011;62389;51.412;5.436;2022-11-15T09:38:51;4.25;;;2.33;;
74044;SDS011;62389;51.412;5.436;2022-11-15T09:49:43;2.90;;;1.20;;
74044;SDS011;62389;51.412;5.436;2022-11-15T09:52:09;2.28;;;1.60;;
74044;SDS011;62389;51.412;5.436;2022-11-15T09:54:37;3.80;;;1.20;;
74044;SDS011;62389;51.412;5.436;2022-11-15T09:57:14;2.95;;;1.42;;
74044;SDS011;62389;51.412;5.436;2022-11-15T10:02:45;5.22;;;1.67;;
74044;SDS011;62389;51.412;5.436;2022-11-15T10:05:30;2.50;;;0.98;;
74044;SDS011;62389;51.412;5.436;2022-11-15T10:10:46;5.23;;;1.50;;
74044;SDS011;62389;51.412;5.436;2022-11-15T10:13:20;4.15;;;1.50;;
74044;SDS011;62389;51.412;5.436;2022-11-15T10:15:49;4.85;;;1.10;;
74044;SDS011;62389;51.412;5.436;2022-11-15T10:21:00;2.83;;;1.00;;
74044;SDS011;62389;51.412;5.436;2022-11-15T10:23:38;3.05;;;1.45;;
74044;SDS011;62389;51.412;5.436;2022-11-15T10:26:04;2.90;;;1.30;;
74044;SDS011;62389;51.412;5.436;2022-11-15T10:28:35;4.32;;;0.98;;
74044;SDS011;62389;51.412;5.436;2022-11-15T10:31:01;2.88;;;1.10;;
74044;SDS011;62389;51.412;5.436;2022-11-15T10:41:15;2.30;;;1.17;;
74044;SDS011;62389;51.412;5.436;2022-11-15T10:43:42;3.03;;;1.00;;
74044;SDS011;62389;51.412;5.436;2022-11-15T10:46:23;2.58;;;1.20;;
74044;SDS011;62389;51.412;5.436;2022-11-15T10:48:49;5.13;;;1.40;;
74044;SDS011;62389;51.412;5.436;2022-11-15T10:51:22;5.03;;;1.80;;
74044;SDS011;62389;51.412;5.436;2022-11-15T10:53:53;3.78;;;1.10;;
74044;SDS011;62389;51.412;5.436;2022-11-15T10:56:21;4.18;;;1.38;;
74044;SDS011;62389;51.412;5.436;2022-11-15T10:58:52;4.47;;;1.02;;
74044;SDS011;62389;51.412;5.436;2022-11-15T11:01:25;3.30;;;1.20;;
74044;SDS011;62389;51.412;5.436;2022-11-15T11:03:59;6.35;;;1.50;;
74044;SDS011;62389;51.412;5.436;2022-11-15T11:06:29;4.97;;;1.10;;
74044;SDS011;62389;51.412;5.436;2022-11-15T11:11:25;2.08;;;1.10;;
74044;SDS011;62389;51.412;5.436;2022-11-15T11:14:13;3.28;;;0.98;;
74044;SDS011;62389;51.412;5.436;2022-11-15T11:16:47;3.53;;;0.93;;
74044;SDS011;62389;51.412;5.436;2022-11-15T11:19:31;2.63;;;1.02;;
74044;SDS011;62389;51.412;5.436;2022-11-15T11:25:03;2.60;;;1.02;;
74044;SDS011;62389;51.412;5.436;2022-11-15T11:27:36;4.45;;;0.88;;
74044;SDS011;62389;51.412;5.436;2022-11-15T11:32:48;2.60;;;1.02;;
74044;SDS011;62389;51.412;5.436;2022-11-15T11:38:20;3.25;;;1.02;;
74044;SDS011;62389;51.412;5.436;2022-11-15T11:46:28;2.20;;;1.00;;
74044;SDS011;62389;51.412;5.436;2022-11-15T11:49:10;6.15;;;1.10;;
74044;SDS011;62389;51.412;5.436;2022-11-15T11:59:54;3.10;;;0.98;;
74044;SDS011;62389;51.412;5.436;2022-11-15T12:02:30;1.92;;;0.60;;
74044;SDS011;62389;51.412;5.436;2022-11-15T12:05:25;2.95;;;1.00;;
74044;SDS011;62389;51.412;5.436;2022-11-15T12:08:03;2.75;;;0.70;;
74044;SDS011;62389;51.412;5.436;2022-11-15T12:10:40;3.05;;;1.13;;
74044;SDS011;62389;51.412;5.436;2022-11-15T12:13:16;2.83;;;0.98;;
74044;SDS011;62389;51.412;5.436;2022-11-15T12:15:56;2.80;;;1.20;;
74044;SDS011;62389;51.412;5.436;2022-11-15T12:18:29;3.22;;;1.00;;
74044;SDS011;62389;51.412;5.436;2022-11-15T12:21:00;3.63;;;1.00;;
74044;SDS011;62389;51.412;5.436;2022-11-15T12:26:57;1.70;;;0.93;;
74044;SDS011;62389;51.412;5.436;2022-11-15T12:29:48;3.85;;;0.93;;
74044;SDS011;62389;51.412;5.436;2022-11-15T12:32:28;2.90;;;0.90;;
74044;SDS011;62389;51.412;5.436;2022-11-15T12:34:58;2.22;;;0.70;;
74044;SDS011;62389;51.412;5.436;2022-11-15T12:42:35;6.43;;;1.05;;
74044;SDS011;62389;51.412;5.436;2022-11-15T13:01:14;2.10;;;0.70;;
74044;SDS011;62389;51.412;5.436;2022-11-15T13:06:44;1.45;;;0.75;;
74044;SDS011;62389;51.412;5.436;2022-11-15T13:11:55;3.95;;;0.90;;
74044;SDS011;62389;51.412;5.436;2022-11-15T13:14:34;3.33;;;1.27;;
74044;SDS011;62389;51.412;5.436;2022-11-15T13:19:48;3.60;;;1.20;;
74044;SDS011;62389;51.412;5.436;2022-11-15T13:22:18;2.80;;;0.80;;
74044;SDS011;62389;51.412;5.436;2022-11-15T13:25:01;2.38;;;1.13;;
74044;SDS011;62389;51.412;5.436;2022-11-15T13:27:28;3.88;;;0.90;;
74044;SDS011;62389;51.412;5.436;2022-11-15T13:29:54;6.07;;;1.00;;
74044;SDS011;62389;51.412;5.436;2022-11-15T13:32:19;2.78;;;0.90;;
74044;SDS011;62389;51.412;5.436;2022-11-15T13:34:46;4.13;;;0.82;;
74044;SDS011;62389;51.412;5.436;2022-11-15T13:39:45;4.63;;;0.80;;
74044;SDS011;62389;51.412;5.436;2022-11-15T13:42:14;3.33;;;0.80;;
74044;SDS011;62389;51.412;5.436;2022-11-15T13:44:40;2.25;;;0.93;;
74044;SDS011;62389;51.412;5.436;2022-11-15T13:47:20;7.45;;;0.95;;
74044;SDS011;62389;51.412;5.436;2022-11-15T13:49:46;3.50;;;0.77;;
74044;SDS011;62389;51.412;5.436;2022-11-15T13:52:13;1.98;;;0.70;;
74044;SDS011;62389;51.412;5.436;2022-11-15T13:54:45;3.08;;;0.70;;
74044;SDS011;62389;51.412;5.436;2022-11-15T13:59:48;2.75;;;0.70;;
74044;SDS011;62389;51.412;5.436;2022-11-15T14:02:19;4.22;;;1.00;;
74044;SDS011;62389;51.412;5.436;2022-11-15T14:04:57;4.50;;;1.13;;
74044;SDS011;62389;51.412;5.436;2022-11-15T14:07:27;5.00;;;1.10;;
74044;SDS011;62389;51.412;5.436;2022-11-15T14:09:53;5.72;;;1.05;;
74044;SDS011;62389;51.412;5.436;2022-11-15T14:12:24;3.15;;;0.82;;
74044;SDS011;62389;51.412;5.436;2022-11-15T14:14:52;3.10;;;0.88;;
74044;SDS011;62389;51.412;5.436;2022-11-15T14:19:55;3.97;;;0.90;;
74044;SDS011;62389;51.412;5.436;2022-11-15T14:22:26;3.83;;;0.90;;
74044;SDS011;62389;51.412;5.436;2022-11-15T14:28:07;4.68;;;0.98;;
74044;SDS011;62389;51.412;5.436;2022-11-15T14:30:42;5.13;;;0.90;;
74044;SDS011;62389;51.412;5.436;2022-11-15T14:35:53;4.13;;;0.75;;
74044;SDS011;62389;51.412;5.436;2022-11-15T14:38:20;2.35;;;0.70;;
74044;SDS011;62389;51.412;5.436;2022-11-15T14:40:45;4.68;;;0.77;;
74044;SDS011;62389;51.412;5.436;2022-11-15T14:43:11;4.43;;;1.13;;
74044;SDS011;62389;51.412;5.436;2022-11-15T14:45:37;5.05;;;0.90;;
74044;SDS011;62389;51.412;5.436;2022-11-15T14:48:03;4.07;;;1.00;;
74044;SDS011;62389;51.412;5.436;2022-11-15T14:50:29;5.85;;;1.00;;
74044;SDS011;62389;51.412;5.436;2022-11-15T14:52:54;2.50;;;1.05;;
74044;SDS011;62389;51.412;5.436;2022-11-15T14:55:21;4.00;;;1.02;;
74044;SDS011;62389;51.412;5.436;2022-11-15T14:57:49;4.13;;;1.05;;
74044;SDS011;62389;51.412;5.436;2022-11-15T15:00:15;2.55;;;1.00;;
74044;SDS011;62389;51.412;5.436;2022-11-15T15:02:41;4.35;;;1.10;;
74044;SDS011;62389;51.412;5.436;2022-11-15T15:05:22;2.90;;;0.93;;
74044;SDS011;62389;51.412;5.436;2022-11-15T15:07:54;2.13;;;0.90;;
74044;SDS011;62389;51.412;5.436;2022-11-15T15:10:19;4.13;;;1.40;;
74044;SDS011;62389;51.412;5.436;2022-11-15T15:12:45;2.00;;;0.90;;
74044;SDS011;62389;51.412;5.436;2022-11-15T15:15:14;3.20;;;1.20;;
74044;SDS011;62389;51.412;5.436;2022-11-15T15:17:42;4.63;;;1.98;;
74044;SDS011;62389;51.412;5.436;2022-11-15T15:20:08;3.30;;;1.00;;
74044;SDS011;62389;51.412;5.436;2022-11-15T15:22:34;2.97;;;1.13;;
74044;SDS011;62389;51.412;5.436;2022-11-15T15:25:00;4.80;;;1.10;;
74044;SDS011;62389;51.412;5.436;2022-11-15T15:27:25;3.58;;;1.10;;
74044;SDS011;62389;51.412;5.436;2022-11-15T15:29:50;2.70;;;1.55;;
74044;SDS011;62389;51.412;5.436;2022-11-15T15:32:16;2.53;;;1.65;;
74044;SDS011;62389;51.412;5.436;2022-11-15T15:34:41;4.07;;;1.33;;
74044;SDS011;62389;51.412;5.436;2022-11-15T15:37:23;2.67;;;1.30;;
74044;SDS011;62389;51.412;5.436;2022-11-15T15:39:50;4.30;;;1.30;;
74044;SDS011;62389;51.412;5.436;2022-11-15T15:42:17;6.35;;;1.30;;
74044;SDS011;62389;51.412;5.436;2022-11-15T15:44:43;3.63;;;1.60;;
74044;SDS011;62389;51.412;5.436;2022-11-15T15:47:12;5.70;;;1.35;;
74044;SDS011;62389;51.412;5.436;2022-11-15T15:49:41;2.47;;;1.45;;
74044;SDS011;62389;51.412;5.436;2022-11-15T15:52:06;4.38;;;1.80;;
74044;SDS011;62389;51.412;5.436;2022-11-15T15:54:32;5.20;;;1.98;;
74044;SDS011;62389;51.412;5.436;2022-11-15T15:56:57;3.67;;;1.52;;
74044;SDS011;62389;51.412;5.436;2022-11-15T15:59:22;5.10;;;1.80;;
74044;SDS011;62389;51.412;5.436;2022-11-15T16:01:48;5.25;;;2.40;;
74044;SDS011;62389;51.412;5.436;2022-11-15T16:04:13;11.25;;;3.17;;
74044;SDS011;62389;51.412;5.436;2022-11-15T16:06:39;5.22;;;2.40;;
74044;SDS011;62389;51.412;5.436;2022-11-15T16:09:12;5.90;;;2.35;;
74044;SDS011;62389;51.412;5.436;2022-11-15T16:11:39;3.70;;;1.60;;
74044;SDS011;62389;51.412;5.436;2022-11-15T16:14:04;6.13;;;2.00;;
74044;SDS011;62389;51.412;5.436;2022-11-15T16:16:30;6.13;;;1.63;;
74044;SDS011;62389;51.412;5.436;2022-11-15T16:18:55;2.95;;;1.80;;
74044;SDS011;62389;51.412;5.436;2022-11-15T16:21:20;5.40;;;2.40;;
74044;SDS011;62389;51.412;5.436;2022-11-15T16:23:46;3.90;;;2.47;;
74044;SDS011;62389;51.412;5.436;2022-11-15T16:26:18;6.40;;;2.92;;
74044;SDS011;62389;51.412;5.436;2022-11-15T16:28:46;7.28;;;4.53;;
74044;SDS011;62389;51.412;5.436;2022-11-15T16:31:11;5.22;;;2.63;;
74044;SDS011;62389;51.412;5.436;2022-11-15T16:33:38;5.85;;;3.55;;
74044;SDS011;62389;51.412;5.436;2022-11-15T16:36:04;8.27;;;4.53;;
74044;SDS011;62389;51.412;5.436;2022-11-15T16:38:31;5.78;;;4.15;;
74044;SDS011;62389;51.412;5.436;2022-11-15T16:40:57;8.23;;;3.10;;
74044;SDS011;62389;51.412;5.436;2022-11-15T16:43:23;6.47;;;4.00;;
74044;SDS011;62389;51.412;5.436;2022-11-15T16:45:49;5.63;;;3.85;;
74044;SDS011;62389;51.412;5.436;2022-11-15T16:48:20;11.73;;;4.47;;
74044;SDS011;62389;51.412;5.436;2022-11-15T16:50:50;4.32;;;2.58;;
74044;SDS011;62389;51.412;5.436;2022-11-15T16:53:20;5.15;;;3.03;;
74044;SDS011;62389;51.412;5.436;2022-11-15T16:55:45;5.97;;;3.40;;
74044;SDS011;62389;51.412;5.436;2022-11-15T16:58:10;6.55;;;3.70;;
74044;SDS011;62389;51.412;5.436;2022-11-15T17:00:36;4.53;;;2.60;;
74044;SDS011;62389;51.412;5.436;2022-11-15T17:03:01;4.65;;;2.95;;
74044;SDS011;62389;51.412;5.436;2022-11-15T17:05:27;6.65;;;3.50;;
74044;SDS011;62389;51.412;5.436;2022-11-15T17:07:53;6.60;;;2.90;;
74044;SDS011;62389;51.412;5.436;2022-11-15T17:10:19;9.23;;;3.42;;
74044;SDS011;62389;51.412;5.436;2022-11-15T17:12:49;5.47;;;2.80;;
74044;SDS011;62389;51.412;5.436;2022-11-15T17:15:15;7.22;;;3.13;;